sensor_id;sensor_type;location;lat;lon;timestamp;pressure;altitude;pressure_sealevel;temperature;humidity
6194;BME280;3130;41.564;23.280;2023-05-23T00:02:14;98571.63;;;17.01;76.56
6194;BME280;3130;41.564;23.280;2023-05-23T00:04:41;98539.78;;;16.82;77.19
6194;BME280;3130;41.564;23.280;2023-05-23T00:07:09;98561.25;;;17.01;77.17
6194;BME280;3130;41.564;23.280;2023-05-23T00:09:36;98568.88;;;17.21;76.83
6194;BME280;3130;41.564;23.280;2023-05-23T00:12:03;98563.53;;;17.23;76.67
6194;BME280;3130;41.564;23.280;2023-05-23T00:14:32;98571.72;;;17.28;76.55
6194;BME280;3130;41.564;23.280;2023-05-23T00:16:59;98559.81;;;17.35;76.23
6194;BME280;3130;41.564;23.280;2023-05-23T00:19:27;98546.63;;;17.19;76.94
6194;BME280;3130;41.564;23.280;2023-05-23T00:21:54;98560.53;;;17.18;77.35
6194;BME280;3130;41.564;23.280;2023-05-23T00:24:23;98535.78;;;16.97;77.18
6194;BME280;3130;41.564;23.280;2023-05-23T00:26:50;98555.53;;;17.07;77.08
6194;BME280;3130;41.564;23.280;2023-05-23T00:29:17;98560.47;;;17.01;77.67
6194;BME280;3130;41.564;23.280;2023-05-23T00:31:45;98569.28;;;17.08;77.92
6194;BME280;3130;41.564;23.280;2023-05-23T00:34:12;98566.13;;;17.23;77.58
6194;BME280;3130;41.564;23.280;2023-05-23T00:36:40;98567.59;;;17.25;77.41
6194;BME280;3130;41.564;23.280;2023-05-23T00:39:08;98563.66;;;17.31;77.47
6194;BME280;3130;41.564;23.280;2023-05-23T00:41:43;98555.91;;;17.21;77.44
6194;BME280;3130;41.564;23.280;2023-05-23T00:44:11;98565.72;;;17.18;77.70
6194;BME280;3130;41.564;23.280;2023-05-23T00:46:38;98557.94;;;17.18;77.70
6194;BME280;3130;41.564;23.280;2023-05-23T00:49:07;98547.72;;;17.17;77.92
6194;BME280;3130;41.564;23.280;2023-05-23T00:51:34;98561.19;;;17.39;77.97
6194;BME280;3130;41.564;23.280;2023-05-23T00:54:03;98560.38;;;17.65;75.86
6194;BME280;3130;41.564;23.280;2023-05-23T00:56:31;98546.59;;;17.65;75.56
6194;BME280;3130;41.564;23.280;2023-05-23T00:58:58;98557.28;;;17.79;75.74
6194;BME280;3130;41.564;23.280;2023-05-23T01:01:26;98547.03;;;17.87;75.43
6194;BME280;3130;41.564;23.280;2023-05-23T01:03:53;98504.63;;;17.52;75.63
6194;BME280;3130;41.564;23.280;2023-05-23T01:06:22;98542.47;;;17.72;76.24
6194;BME280;3130;41.564;23.280;2023-05-23T01:08:49;98542.97;;;17.75;76.58
6194;BME280;3130;41.564;23.280;2023-05-23T01:11:22;98541.53;;;17.90;76.00
6194;BME280;3130;41.564;23.280;2023-05-23T01:13:58;98517.59;;;17.52;76.65
6194;BME280;3130;41.564;23.280;2023-05-23T01:16:32;98540.84;;;17.44;77.18
6194;BME280;3130;41.564;23.280;2023-05-23T01:19:09;98531.31;;;17.25;78.34
6194;BME280;3130;41.564;23.280;2023-05-23T01:21:42;98540.19;;;17.23;79.01
6194;BME280;3130;41.564;23.280;2023-05-23T01:24:35;98545.44;;;17.04;80.06
6194;BME280;3130;41.564;23.280;2023-05-23T01:27:08;98545.06;;;16.90;80.84
6194;BME280;3130;41.564;23.280;2023-05-23T01:29:44;98521.78;;;16.71;81.46
6194;BME280;3130;41.564;23.280;2023-05-23T01:32:13;98538.41;;;16.87;81.43
6194;BME280;3130;41.564;23.280;2023-05-23T01:34:41;98531.59;;;16.86;81.82
6194;BME280;3130;41.564;23.280;2023-05-23T01:37:10;98532.00;;;16.82;81.83
6194;BME280;3130;41.564;23.280;2023-05-23T01:39:39;98514.69;;;16.82;81.68
6194;BME280;3130;41.564;23.280;2023-05-23T01:42:07;98515.63;;;16.81;81.71
6194;BME280;3130;41.564;23.280;2023-05-23T01:44:34;98532.50;;;16.95;81.52
6194;BME280;3130;41.564;23.280;2023-05-23T01:47:04;98528.75;;;16.80;81.67
6194;BME280;3130;41.564;23.280;2023-05-23T01:49:33;98535.31;;;16.74;81.82
6194;BME280;3130;41.564;23.280;2023-05-23T01:52:02;98527.00;;;16.52;82.36
6194;BME280;3130;41.564;23.280;2023-05-23T01:54:31;98537.78;;;16.47;82.98
6194;BME280;3130;41.564;23.280;2023-05-23T01:57:00;98534.91;;;16.31;83.86
6194;BME280;3130;41.564;23.280;2023-05-23T01:59:27;98528.53;;;16.35;83.66
6194;BME280;3130;41.564;23.280;2023-05-23T02:01:54;98529.88;;;16.39;83.57
6194;BME280;3130;41.564;23.280;2023-05-23T02:04:23;98529.16;;;16.18;84.43
6194;BME280;3130;41.564;23.280;2023-05-23T02:06:50;98531.06;;;16.16;84.77
6194;BME280;3130;41.564;23.280;2023-05-23T02:09:17;98531.06;;;16.07;85.06
6194;BME280;3130;41.564;23.280;2023-05-23T02:11:44;98530.50;;;15.94;85.93
6194;BME280;3130;41.564;23.280;2023-05-23T02:14:11;98536.44;;;15.76;87.00
6194;BME280;3130;41.564;23.280;2023-05-23T02:16:38;98529.59;;;15.56;87.80
6194;BME280;3130;41.564;23.280;2023-05-23T02:19:05;98533.19;;;15.34;88.79
6194;BME280;3130;41.564;23.280;2023-05-23T02:21:34;98529.56;;;15.16;89.71
6194;BME280;3130;41.564;23.280;2023-05-23T02:24:01;98537.09;;;14.99;90.66
6194;BME280;3130;41.564;23.280;2023-05-23T02:26:28;98530.94;;;14.91;91.10
6194;BME280;3130;41.564;23.280;2023-05-23T02:28:55;98531.44;;;14.85;91.97
6194;BME280;3130;41.564;23.280;2023-05-23T02:31:22;98528.72;;;14.86;91.39
6194;BME280;3130;41.564;23.280;2023-05-23T02:33:49;98527.63;;;14.79;91.59
6194;BME280;3130;41.564;23.280;2023-05-23T02:36:16;98491.06;;;14.54;91.53
6194;BME280;3130;41.564;23.280;2023-05-23T02:38:44;98486.38;;;14.48;91.80
6194;BME280;3130;41.564;23.280;2023-05-23T02:41:11;98537.31;;;14.66;91.77
6194;BME280;3130;41.564;23.280;2023-05-23T02:43:38;98509.63;;;14.48;91.56
6194;BME280;3130;41.564;23.280;2023-05-23T02:46:05;98527.03;;;14.55;91.66
6194;BME280;3130;41.564;23.280;2023-05-23T02:48:32;98528.69;;;14.56;90.82
6194;BME280;3130;41.564;23.280;2023-05-23T02:50:59;98514.41;;;14.73;90.27
6194;BME280;3130;41.564;23.280;2023-05-23T02:53:26;98531.75;;;14.91;89.41
6194;BME280;3130;41.564;23.280;2023-05-23T02:55:54;98539.19;;;14.85;88.85
6194;BME280;3130;41.564;23.280;2023-05-23T02:58:21;98537.38;;;14.76;88.69
6194;BME280;3130;41.564;23.280;2023-05-23T03:00:48;98541.97;;;14.72;88.76
6194;BME280;3130;41.564;23.280;2023-05-23T03:03:15;98538.44;;;14.73;89.00
6194;BME280;3130;41.564;23.280;2023-05-23T03:05:42;98548.72;;;14.84;88.87
6194;BME280;3130;41.564;23.280;2023-05-23T03:08:09;98552.28;;;14.93;88.20
6194;BME280;3130;41.564;23.280;2023-05-23T03:10:36;98550.00;;;14.79;88.34
6194;BME280;3130;41.564;23.280;2023-05-23T03:13:05;98543.72;;;14.72;88.96
6194;BME280;3130;41.564;23.280;2023-05-23T03:15:32;98546.94;;;14.64;89.14
6194;BME280;3130;41.564;23.280;2023-05-23T03:17:59;98516.28;;;14.30;89.64
6194;BME280;3130;41.564;23.280;2023-05-23T03:20:26;98542.63;;;14.33;90.68
6194;BME280;3130;41.564;23.280;2023-05-23T03:22:53;98547.59;;;14.25;90.66
6194;BME280;3130;41.564;23.280;2023-05-23T03:25:20;98548.47;;;14.15;91.62
6194;BME280;3130;41.564;23.280;2023-05-23T03:27:47;98550.44;;;14.01;92.07
6194;BME280;3130;41.564;23.280;2023-05-23T03:30:16;98525.88;;;13.86;92.15
6194;BME280;3130;41.564;23.280;2023-05-23T03:32:43;98563.81;;;14.06;92.51
6194;BME280;3130;41.564;23.280;2023-05-23T03:35:11;98560.84;;;14.10;91.93
6194;BME280;3130;41.564;23.280;2023-05-23T03:37:38;98561.47;;;14.13;92.03
6194;BME280;3130;41.564;23.280;2023-05-23T03:40:06;98561.56;;;14.12;91.94
6194;BME280;3130;41.564;23.280;2023-05-23T03:42:35;98560.84;;;14.10;91.64
6194;BME280;3130;41.564;23.280;2023-05-23T03:45:02;98570.59;;;14.07;91.76
6194;BME280;3130;41.564;23.280;2023-05-23T03:47:30;98569.75;;;14.06;91.55
6194;BME280;3130;41.564;23.280;2023-05-23T03:49:57;98574.69;;;14.09;91.83
6194;BME280;3130;41.564;23.280;2023-05-23T03:52:24;98566.72;;;14.23;91.68
6194;BME280;3130;41.564;23.280;2023-05-23T03:54:51;98579.25;;;14.27;90.75
6194;BME280;3130;41.564;23.280;2023-05-23T03:57:18;98538.22;;;14.24;89.61
6194;BME280;3130;41.564;23.280;2023-05-23T03:59:45;98576.69;;;14.48;89.18
6194;BME280;3130;41.564;23.280;2023-05-23T04:02:12;98578.13;;;14.41;88.85
6194;BME280;3130;41.564;23.280;2023-05-23T04:04:41;98570.13;;;14.44;89.49
6194;BME280;3130;41.564;23.280;2023-05-23T04:07:08;98571.66;;;14.46;88.91
6194;BME280;3130;41.564;23.280;2023-05-23T04:09:35;98562.00;;;14.28;89.62
6194;BME280;3130;41.564;23.280;2023-05-23T04:12:03;98436.50;;;13.55;89.73
6194;BME280;3130;41.564;23.280;2023-05-23T04:14:30;98593.94;;;14.47;89.50
6194;BME280;3130;41.564;23.280;2023-05-23T04:16:58;98590.16;;;14.51;89.18
6194;BME280;3130;41.564;23.280;2023-05-23T04:19:25;98593.31;;;14.55;89.01
6194;BME280;3130;41.564;23.280;2023-05-23T04:21:54;98590.50;;;14.58;88.75
6194;BME280;3130;41.564;23.280;2023-05-23T04:24:21;98575.50;;;14.52;88.46
6194;BME280;3130;41.564;23.280;2023-05-23T04:26:48;98586.59;;;14.63;88.16
6194;BME280;3130;41.564;23.280;2023-05-23T04:29:15;98590.19;;;14.72;88.27
6194;BME280;3130;41.564;23.280;2023-05-23T04:31:42;98593.25;;;14.86;87.87
6194;BME280;3130;41.564;23.280;2023-05-23T04:34:10;98600.81;;;14.99;87.36
6194;BME280;3130;41.564;23.280;2023-05-23T04:36:37;98588.91;;;15.07;87.16
6194;BME280;3130;41.564;23.280;2023-05-23T04:39:06;98558.47;;;15.01;86.34
6194;BME280;3130;41.564;23.280;2023-05-23T04:41:33;98599.44;;;15.35;86.09
6194;BME280;3130;41.564;23.280;2023-05-23T04:44:01;98588.88;;;15.48;85.85
6194;BME280;3130;41.564;23.280;2023-05-23T04:46:28;98584.75;;;15.66;85.03
6194;BME280;3130;41.564;23.280;2023-05-23T04:48:55;98584.19;;;15.62;84.49
6194;BME280;3130;41.564;23.280;2023-05-23T04:51:23;98598.50;;;15.76;84.29
6194;BME280;3130;41.564;23.280;2023-05-23T04:53:50;98584.94;;;15.93;84.39
6194;BME280;3130;41.564;23.280;2023-05-23T04:56:18;98571.75;;;16.05;84.11
6194;BME280;3130;41.564;23.280;2023-05-23T04:58:46;98582.81;;;16.16;83.72
6194;BME280;3130;41.564;23.280;2023-05-23T05:01:13;98579.69;;;16.13;83.72
6194;BME280;3130;41.564;23.280;2023-05-23T05:03:41;98579.28;;;16.27;83.79
6194;BME280;3130;41.564;23.280;2023-05-23T05:06:08;98583.69;;;16.45;83.66
6194;BME280;3130;41.564;23.280;2023-05-23T05:08:35;98582.72;;;16.65;81.76
6194;BME280;3130;41.564;23.280;2023-05-23T05:11:02;98571.66;;;16.82;80.77
6194;BME280;3130;41.564;23.280;2023-05-23T05:13:30;98585.28;;;16.94;80.57
6194;BME280;3130;41.564;23.280;2023-05-23T05:15:57;98578.59;;;17.01;79.61
6194;BME280;3130;41.564;23.280;2023-05-23T05:18:25;98486.66;;;16.59;76.78
6194;BME280;3130;41.564;23.280;2023-05-23T05:20:52;98588.75;;;17.40;76.25
6194;BME280;3130;41.564;23.280;2023-05-23T05:23:25;98583.47;;;17.59;74.20
6194;BME280;3130;41.564;23.280;2023-05-23T05:25:54;98575.81;;;17.57;74.01
6194;BME280;3130;41.564;23.280;2023-05-23T05:28:22;98589.63;;;17.85;72.60
6194;BME280;3130;41.564;23.280;2023-05-23T05:30:50;98585.44;;;18.01;71.61
6194;BME280;3130;41.564;23.280;2023-05-23T05:33:19;98588.94;;;18.10;71.25
6194;BME280;3130;41.564;23.280;2023-05-23T05:35:48;98593.66;;;18.23;71.73
6194;BME280;3130;41.564;23.280;2023-05-23T05:38:15;98595.66;;;18.29;70.75
6194;BME280;3130;41.564;23.280;2023-05-23T05:40:42;98596.84;;;18.35;69.86
6194;BME280;3130;41.564;23.280;2023-05-23T05:43:10;98589.66;;;18.29;69.72
6194;BME280;3130;41.564;23.280;2023-05-23T05:45:37;98603.84;;;18.34;69.77
6194;BME280;3130;41.564;23.280;2023-05-23T05:48:05;98590.47;;;18.29;69.96
6194;BME280;3130;41.564;23.280;2023-05-23T05:50:33;98594.91;;;18.54;69.83
6194;BME280;3130;41.564;23.280;2023-05-23T05:53:00;98599.28;;;18.71;69.84
6194;BME280;3130;41.564;23.280;2023-05-23T05:55:27;98572.13;;;18.66;69.54
6194;BME280;3130;41.564;23.280;2023-05-23T05:57:54;98593.69;;;19.01;68.88
6194;BME280;3130;41.564;23.280;2023-05-23T06:00:21;98574.63;;;18.93;68.65
6194;BME280;3130;41.564;23.280;2023-05-23T06:02:48;98595.22;;;19.12;67.99
6194;BME280;3130;41.564;23.280;2023-05-23T06:05:17;98598.97;;;19.34;68.51
6194;BME280;3130;41.564;23.280;2023-05-23T06:07:47;98587.56;;;19.27;69.37
6194;BME280;3130;41.564;23.280;2023-05-23T06:10:14;98579.19;;;19.41;69.22
6194;BME280;3130;41.564;23.280;2023-05-23T06:12:42;98589.31;;;19.52;68.50
6194;BME280;3130;41.564;23.280;2023-05-23T06:15:10;98594.72;;;19.59;68.47
6194;BME280;3130;41.564;23.280;2023-05-23T06:17:39;98585.00;;;19.69;66.29
6194;BME280;3130;41.564;23.280;2023-05-23T06:20:06;98585.19;;;19.67;66.31
6194;BME280;3130;41.564;23.280;2023-05-23T06:22:35;98570.53;;;19.66;67.26
6194;BME280;3130;41.564;23.280;2023-05-23T06:25:02;98582.72;;;19.99;66.04
6194;BME280;3130;41.564;23.280;2023-05-23T06:27:29;98560.59;;;20.11;64.05
6194;BME280;3130;41.564;23.280;2023-05-23T06:29:56;98568.28;;;20.21;64.44
6194;BME280;3130;41.564;23.280;2023-05-23T06:32:23;98557.81;;;20.13;66.19
6194;BME280;3130;41.564;23.280;2023-05-23T06:34:50;98567.00;;;20.25;65.93
6194;BME280;3130;41.564;23.280;2023-05-23T06:37:17;98570.59;;;20.39;65.16
6194;BME280;3130;41.564;23.280;2023-05-23T06:39:46;98564.88;;;20.60;63.91
6194;BME280;3130;41.564;23.280;2023-05-23T06:42:14;98563.75;;;20.78;63.71
6194;BME280;3130;41.564;23.280;2023-05-23T06:44:41;98567.69;;;20.90;62.43
6194;BME280;3130;41.564;23.280;2023-05-23T06:47:08;98566.69;;;21.07;61.95
6194;BME280;3130;41.564;23.280;2023-05-23T06:49:35;98562.91;;;21.26;61.50
6194;BME280;3130;41.564;23.280;2023-05-23T06:52:02;98560.09;;;21.43;61.16
6194;BME280;3130;41.564;23.280;2023-05-23T06:54:29;98560.50;;;21.70;59.22
6194;BME280;3130;41.564;23.280;2023-05-23T06:56:57;98515.53;;;21.52;58.50
6194;BME280;3130;41.564;23.280;2023-05-23T06:59:24;98543.53;;;21.74;57.36
6194;BME280;3130;41.564;23.280;2023-05-23T07:01:51;98547.84;;;21.90;56.42
6194;BME280;3130;41.564;23.280;2023-05-23T07:04:18;98557.47;;;21.89;57.10
6194;BME280;3130;41.564;23.280;2023-05-23T07:06:45;98550.75;;;21.95;56.50
6194;BME280;3130;41.564;23.280;2023-05-23T07:09:12;98549.44;;;21.99;55.96
6194;BME280;3130;41.564;23.280;2023-05-23T07:11:39;98548.94;;;22.26;55.11
6194;BME280;3130;41.564;23.280;2023-05-23T07:14:08;98554.94;;;22.34;54.86
6194;BME280;3130;41.564;23.280;2023-05-23T07:16:35;98543.47;;;22.43;54.01
6194;BME280;3130;41.564;23.280;2023-05-23T07:19:02;98544.44;;;22.42;54.47
6194;BME280;3130;41.564;23.280;2023-05-23T07:21:29;98539.44;;;22.55;54.37
6194;BME280;3130;41.564;23.280;2023-05-23T07:23:57;98535.41;;;22.67;53.32
6194;BME280;3130;41.564;23.280;2023-05-23T07:26:24;98535.19;;;22.91;53.20
6194;BME280;3130;41.564;23.280;2023-05-23T07:28:52;98533.41;;;23.06;52.26
6194;BME280;3130;41.564;23.280;2023-05-23T07:31:20;98524.19;;;23.18;52.68
6194;BME280;3130;41.564;23.280;2023-05-23T07:33:47;98540.94;;;23.09;50.84
6194;BME280;3130;41.564;23.280;2023-05-23T07:36:14;98529.50;;;23.24;50.90
6194;BME280;3130;41.564;23.280;2023-05-23T07:38:42;98527.34;;;23.42;50.14
6194;BME280;3130;41.564;23.280;2023-05-23T07:41:09;98523.16;;;23.62;47.94
6194;BME280;3130;41.564;23.280;2023-05-23T07:43:36;98497.59;;;23.64;48.08
6194;BME280;3130;41.564;23.280;2023-05-23T07:46:03;98517.53;;;23.94;47.47
6194;BME280;3130;41.564;23.280;2023-05-23T07:48:32;98525.09;;;24.03;45.51
6194;BME280;3130;41.564;23.280;2023-05-23T07:50:59;98514.53;;;24.18;46.03
6194;BME280;3130;41.564;23.280;2023-05-23T07:53:26;98513.19;;;24.22;45.85
6194;BME280;3130;41.564;23.280;2023-05-23T07:55:53;98525.59;;;24.34;45.26
6194;BME280;3130;41.564;23.280;2023-05-23T07:58:20;98510.84;;;24.48;45.17
6194;BME280;3130;41.564;23.280;2023-05-23T08:00:47;98512.31;;;24.56;43.97
6194;BME280;3130;41.564;23.280;2023-05-23T08:03:14;98522.38;;;24.74;42.97
6194;BME280;3130;41.564;23.280;2023-05-23T08:05:45;98516.16;;;24.81;42.93
6194;BME280;3130;41.564;23.280;2023-05-23T08:08:13;98521.63;;;24.86;41.78
6194;BME280;3130;41.564;23.280;2023-05-23T08:10:40;98527.25;;;24.77;41.28
6194;BME280;3130;41.564;23.280;2023-05-23T08:13:08;98523.03;;;24.82;42.42
6194;BME280;3130;41.564;23.280;2023-05-23T08:15:36;98511.22;;;24.93;41.99
6194;BME280;3130;41.564;23.280;2023-05-23T08:18:03;98511.59;;;25.17;41.74
6194;BME280;3130;41.564;23.280;2023-05-23T08:20:30;98503.56;;;25.25;41.42
6194;BME280;3130;41.564;23.280;2023-05-23T08:22:59;98504.22;;;25.34;39.59
6194;BME280;3130;41.564;23.280;2023-05-23T08:25:27;98501.91;;;25.18;39.96
6194;BME280;3130;41.564;23.280;2023-05-23T08:27:55;98497.50;;;25.25;38.88
6194;BME280;3130;41.564;23.280;2023-05-23T08:30:23;98499.44;;;25.50;39.58
6194;BME280;3130;41.564;23.280;2023-05-23T08:32:50;98506.75;;;25.61;39.74
6194;BME280;3130;41.564;23.280;2023-05-23T08:35:19;98504.97;;;25.68;39.08
6194;BME280;3130;41.564;23.280;2023-05-23T08:37:47;98491.31;;;25.79;38.52
6194;BME280;3130;41.564;23.280;2023-05-23T08:40:18;98499.44;;;25.90;38.71
6194;BME280;3130;41.564;23.280;2023-05-23T08:42:46;98492.47;;;25.76;38.69
6194;BME280;3130;41.564;23.280;2023-05-23T08:45:13;98469.09;;;25.81;38.47
6194;BME280;3130;41.564;23.280;2023-05-23T08:47:42;98462.84;;;25.82;38.67
6194;BME280;3130;41.564;23.280;2023-05-23T08:50:11;98459.63;;;26.06;39.20
6194;BME280;3130;41.564;23.280;2023-05-23T08:52:42;98488.31;;;26.01;37.96
6194;BME280;3130;41.564;23.280;2023-05-23T08:55:10;98487.38;;;26.22;38.10
6194;BME280;3130;41.564;23.280;2023-05-23T08:57:39;98476.84;;;26.35;36.99
6194;BME280;3130;41.564;23.280;2023-05-23T09:00:10;98491.41;;;26.11;37.19
6194;BME280;3130;41.564;23.280;2023-05-23T09:02:39;98479.84;;;25.99;37.25
6194;BME280;3130;41.564;23.280;2023-05-23T09:05:07;98485.09;;;25.52;37.67
6194;BME280;3130;41.564;23.280;2023-05-23T09:07:35;98476.44;;;25.52;38.25
6194;BME280;3130;41.564;23.280;2023-05-23T09:10:03;98479.25;;;25.57;38.36
6194;BME280;3130;41.564;23.280;2023-05-23T09:12:31;98478.41;;;25.44;38.18
6194;BME280;3130;41.564;23.280;2023-05-23T09:15:00;98473.47;;;25.74;38.37
6194;BME280;3130;41.564;23.280;2023-05-23T09:17:27;98477.41;;;25.98;36.66
6194;BME280;3130;41.564;23.280;2023-05-23T09:19:54;98451.19;;;25.51;36.45
6194;BME280;3130;41.564;23.280;2023-05-23T09:22:23;98471.47;;;25.76;36.49
6194;BME280;3130;41.564;23.280;2023-05-23T09:24:52;98473.56;;;26.00;36.54
6194;BME280;3130;41.564;23.280;2023-05-23T09:27:19;98470.16;;;26.06;36.09
6194;BME280;3130;41.564;23.280;2023-05-23T09:29:48;98457.84;;;26.13;35.91
6194;BME280;3130;41.564;23.280;2023-05-23T09:32:17;98467.16;;;26.42;35.06
6194;BME280;3130;41.564;23.280;2023-05-23T09:34:56;98463.50;;;26.36;34.54
6194;BME280;3130;41.564;23.280;2023-05-23T09:37:28;98459.44;;;26.08;35.07
6194;BME280;3130;41.564;23.280;2023-05-23T09:39:56;98461.28;;;26.33;34.68
6194;BME280;3130;41.564;23.280;2023-05-23T09:42:23;98464.72;;;26.21;35.04
6194;BME280;3130;41.564;23.280;2023-05-23T09:44:50;98447.78;;;25.63;35.06
6194;BME280;3130;41.564;23.280;2023-05-23T09:47:19;98463.13;;;25.66;35.05
6194;BME280;3130;41.564;23.280;2023-05-23T09:49:46;98454.16;;;25.95;35.24
6194;BME280;3130;41.564;23.280;2023-05-23T09:52:13;98464.66;;;25.88;33.85
6194;BME280;3130;41.564;23.280;2023-05-23T09:54:40;98453.16;;;26.02;34.09
6194;BME280;3130;41.564;23.280;2023-05-23T09:57:09;98466.75;;;26.38;34.57
6194;BME280;3130;41.564;23.280;2023-05-23T09:59:38;98448.50;;;26.11;34.64
6194;BME280;3130;41.564;23.280;2023-05-23T10:02:06;98452.38;;;26.28;33.91
6194;BME280;3130;41.564;23.280;2023-05-23T10:04:36;98429.91;;;26.19;34.54
6194;BME280;3130;41.564;23.280;2023-05-23T10:07:11;98444.56;;;25.74;34.43
6194;BME280;3130;41.564;23.280;2023-05-23T10:09:42;98447.81;;;25.76;35.18
6194;BME280;3130;41.564;23.280;2023-05-23T10:12:45;98446.25;;;25.95;34.92
6194;BME280;3130;41.564;23.280;2023-05-23T10:15:15;98432.34;;;26.27;34.17
6194;BME280;3130;41.564;23.280;2023-05-23T10:18:02;98441.50;;;26.50;33.50
6194;BME280;3130;41.564;23.280;2023-05-23T10:20:33;98434.38;;;26.83;33.17
6194;BME280;3130;41.564;23.280;2023-05-23T10:23:02;98443.06;;;26.83;32.02
6194;BME280;3130;41.564;23.280;2023-05-23T10:25:31;98444.91;;;26.76;33.11
6194;BME280;3130;41.564;23.280;2023-05-23T10:28:00;98451.00;;;26.58;32.80
6194;BME280;3130;41.564;23.280;2023-05-23T10:30:28;98441.44;;;26.11;33.29
6194;BME280;3130;41.564;23.280;2023-05-23T10:32:55;98439.25;;;26.54;33.78
6194;BME280;3130;41.564;23.280;2023-05-23T10:35:29;98430.69;;;26.97;33.50
6194;BME280;3130;41.564;23.280;2023-05-23T10:38:03;98427.81;;;27.24;32.91
6194;BME280;3130;41.564;23.280;2023-05-23T10:40:42;98393.53;;;27.31;32.60
6194;BME280;3130;41.564;23.280;2023-05-23T10:43:17;98429.66;;;27.11;33.83
6194;BME280;3130;41.564;23.280;2023-05-23T10:45:44;98415.72;;;26.84;33.52
6194;BME280;3130;41.564;23.280;2023-05-23T10:48:21;98425.81;;;27.00;33.39
6194;BME280;3130;41.564;23.280;2023-05-23T10:51:04;98412.09;;;27.05;33.66
6194;BME280;3130;41.564;23.280;2023-05-23T10:53:35;98393.31;;;26.69;34.46
6194;BME280;3130;41.564;23.280;2023-05-23T10:56:04;98414.53;;;26.87;34.14
6194;BME280;3130;41.564;23.280;2023-05-23T10:58:32;98415.88;;;27.22;34.17
6194;BME280;3130;41.564;23.280;2023-05-23T11:01:01;98402.19;;;27.44;33.00
6194;BME280;3130;41.564;23.280;2023-05-23T11:03:33;98424.34;;;27.24;32.79
6194;BME280;3130;41.564;23.280;2023-05-23T11:06:01;98407.75;;;27.61;32.06
6194;BME280;3130;41.564;23.280;2023-05-23T11:08:37;98408.44;;;27.50;31.62
6194;BME280;3130;41.564;23.280;2023-05-23T11:11:07;98395.84;;;27.14;31.85
6194;BME280;3130;41.564;23.280;2023-05-23T11:13:53;98410.97;;;27.69;31.53
6194;BME280;3130;41.564;23.280;2023-05-23T11:16:25;98394.22;;;27.57;31.01
6194;BME280;3130;41.564;23.280;2023-05-23T11:21:38;98394.28;;;27.81;31.32
6194;BME280;3130;41.564;23.280;2023-05-23T11:24:08;98396.53;;;28.09;31.65
6194;BME280;3130;41.564;23.280;2023-05-23T11:26:35;98399.16;;;28.09;29.84
6194;BME280;3130;41.564;23.280;2023-05-23T11:29:07;98395.78;;;28.33;29.53
6194;BME280;3130;41.564;23.280;2023-05-23T11:31:36;98366.16;;;28.31;29.23
6194;BME280;3130;41.564;23.280;2023-05-23T11:34:06;98358.44;;;28.29;29.10
6194;BME280;3130;41.564;23.280;2023-05-23T11:36:33;98383.72;;;28.61;29.22
6194;BME280;3130;41.564;23.280;2023-05-23T11:39:02;98377.91;;;28.04;29.44
6194;BME280;3130;41.564;23.280;2023-05-23T11:41:31;98378.56;;;28.24;30.18
6194;BME280;3130;41.564;23.280;2023-05-23T11:43:59;98365.50;;;28.35;30.29
6194;BME280;3130;41.564;23.280;2023-05-23T11:46:26;98365.53;;;28.53;30.44
6194;BME280;3130;41.564;23.280;2023-05-23T11:48:53;98366.94;;;28.73;29.69
6194;BME280;3130;41.564;23.280;2023-05-23T11:51:20;98367.97;;;28.73;29.43
6194;BME280;3130;41.564;23.280;2023-05-23T11:53:48;98366.63;;;28.64;29.25
6194;BME280;3130;41.564;23.280;2023-05-23T11:56:15;98363.50;;;28.73;30.34
6194;BME280;3130;41.564;23.280;2023-05-23T11:58:43;98369.22;;;28.70;30.09
6194;BME280;3130;41.564;23.280;2023-05-23T12:01:11;98370.94;;;28.82;29.34
6194;BME280;3130;41.564;23.280;2023-05-23T12:03:44;98357.56;;;28.95;28.99
6194;BME280;3130;41.564;23.280;2023-05-23T12:06:13;98357.06;;;29.05;28.78
6194;BME280;3130;41.564;23.280;2023-05-23T12:08:41;98364.69;;;29.13;29.07
6194;BME280;3130;41.564;23.280;2023-05-23T12:11:08;98352.66;;;28.81;27.53
6194;BME280;3130;41.564;23.280;2023-05-23T12:13:36;98340.00;;;28.47;28.12
6194;BME280;3130;41.564;23.280;2023-05-23T12:16:05;98365.13;;;28.74;28.10
6194;BME280;3130;41.564;23.280;2023-05-23T12:18:32;98359.16;;;28.78;27.59
6194;BME280;3130;41.564;23.280;2023-05-23T12:21:00;98354.59;;;28.92;27.61
6194;BME280;3130;41.564;23.280;2023-05-23T12:23:28;98347.31;;;29.05;27.90
6194;BME280;3130;41.564;23.280;2023-05-23T12:25:56;98345.47;;;29.06;27.49
6194;BME280;3130;41.564;23.280;2023-05-23T12:28:34;98351.03;;;28.80;27.92
6194;BME280;3130;41.564;23.280;2023-05-23T12:31:09;98340.34;;;28.93;27.65
6194;BME280;3130;41.564;23.280;2023-05-23T12:33:39;98327.50;;;28.96;27.34
6194;BME280;3130;41.564;23.280;2023-05-23T12:36:08;98335.41;;;28.61;27.71
6194;BME280;3130;41.564;23.280;2023-05-23T12:38:36;98325.88;;;28.60;28.13
6194;BME280;3130;41.564;23.280;2023-05-23T12:41:09;98311.94;;;28.53;28.22
6194;BME280;3130;41.564;23.280;2023-05-23T12:43:39;98324.41;;;28.64;27.36
6194;BME280;3130;41.564;23.280;2023-05-23T12:46:08;98326.19;;;28.52;26.60
6194;BME280;3130;41.564;23.280;2023-05-23T12:48:35;98317.88;;;28.48;27.57
6194;BME280;3130;41.564;23.280;2023-05-23T12:51:03;98305.19;;;28.14;27.33
6194;BME280;3130;41.564;23.280;2023-05-23T12:53:30;98312.13;;;28.33;27.72
6194;BME280;3130;41.564;23.280;2023-05-23T12:55:57;98307.41;;;28.17;28.53
6194;BME280;3130;41.564;23.280;2023-05-23T12:58:24;98304.09;;;28.28;29.26
6194;BME280;3130;41.564;23.280;2023-05-23T13:00:52;98303.13;;;28.16;29.51
6194;BME280;3130;41.564;23.280;2023-05-23T13:03:20;98294.41;;;27.73;30.07
6194;BME280;3130;41.564;23.280;2023-05-23T13:05:47;98301.13;;;27.69;30.37
6194;BME280;3130;41.564;23.280;2023-05-23T13:08:14;98279.25;;;27.93;31.05
6194;BME280;3130;41.564;23.280;2023-05-23T13:10:43;98295.78;;;28.25;29.95
6194;BME280;3130;41.564;23.280;2023-05-23T13:13:10;98290.03;;;28.10;30.30
6194;BME280;3130;41.564;23.280;2023-05-23T13:15:38;98276.81;;;27.61;30.46
6194;BME280;3130;41.564;23.280;2023-05-23T13:18:05;98295.47;;;27.66;30.27
6194;BME280;3130;41.564;23.280;2023-05-23T13:20:33;98301.66;;;27.47;30.50